createdAt,value
2019-04-16T00:04:19.000Z,17.8
2019-04-16T00:09:31.000Z,17.8
2019-04-16T00:14:44.000Z,17.7
2019-04-16T00:19:56.000Z,17.8
2019-04-16T00:25:09.000Z,17.7
2019-04-16T00:30:21.000Z,17.6
2019-04-16T00:40:47.000Z,17.6
2019-04-16T00:45:59.000Z,17.6
2019-04-16T00:51:12.000Z,17.6
2019-04-16T00:56:24.000Z,17.6
2019-04-16T01:01:37.000Z,17.6
2019-04-16T01:06:49.000Z,17.5
2019-04-16T01:12:02.000Z,17.5
2019-04-16T01:17:14.000Z,17.5
2019-04-16T01:22:27.000Z,17.5
2019-04-16T01:27:39.000Z,17.4
2019-04-16T01:32:52.000Z,17.4
2019-04-16T01:38:04.000Z,17.5
2019-04-16T01:48:30.000Z,17.4
2019-04-16T01:53:42.000Z,17.4
2019-04-16T01:58:55.000Z,17.4
2019-04-16T02:04:07.000Z,17.4
2019-04-16T02:09:20.000Z,17.4
2019-04-16T02:14:32.000Z,17.3
2019-04-16T02:19:45.000Z,17.3
2019-04-16T02:24:57.000Z,17.4
2019-04-16T02:30:10.000Z,17.4
2019-04-16T02:35:23.000Z,17.2
2019-04-16T02:40:35.000Z,17.3
2019-04-16T02:45:48.000Z,17.3
2019-04-16T02:51:00.000Z,17.3
2019-04-16T02:56:13.000Z,17.3
2019-04-16T03:01:25.000Z,17.2
2019-04-16T03:06:38.000Z,17.2
2019-04-16T03:11:51.000Z,17.3
2019-04-16T03:17:03.000Z,17.3
2019-04-16T03:22:16.000Z,17.3
2019-04-16T03:27:28.000Z,17.3
2019-04-16T03:32:41.000Z,17.2
2019-04-16T03:37:53.000Z,17.2
2019-04-16T03:43:06.000Z,17.2
2019-04-16T03:48:19.000Z,17.2
2019-04-16T03:53:31.000Z,17.2
2019-04-16T03:58:44.000Z,17.2
2019-04-16T04:03:56.000Z,17.2
2019-04-16T04:09:09.000Z,17.2
2019-04-16T04:14:21.000Z,17.1
2019-04-16T04:19:34.000Z,17.2
2019-04-16T04:24:47.000Z,17.1
2019-04-16T04:35:12.000Z,17.1
2019-04-16T04:40:24.000Z,17.2
2019-04-16T04:45:37.000Z,17.1
2019-04-16T04:50:50.000Z,17.1
2019-04-16T04:56:02.000Z,17.2
2019-04-16T05:01:15.000Z,17.2
2019-04-16T05:06:27.000Z,17.2
2019-04-16T05:11:40.000Z,17.2
2019-04-16T05:16:53.000Z,17.2
2019-04-16T05:22:05.000Z,17.2
2019-04-16T05:27:18.000Z,17.2
2019-04-16T05:32:30.000Z,17.2
2019-04-16T05:37:43.000Z,17.2
2019-04-16T05:42:56.000Z,17.3
2019-04-16T05:48:08.000Z,17.3
2019-04-16T05:53:21.000Z,17.3
2019-04-16T05:58:33.000Z,17.3
2019-04-16T06:03:46.000Z,17.3
2019-04-16T06:08:58.000Z,17.4
2019-04-16T06:14:11.000Z,17.4
2019-04-16T06:19:24.000Z,17.5
2019-04-16T06:24:36.000Z,17.5
2019-04-16T06:29:49.000Z,17.5
2019-04-16T06:35:01.000Z,17.6
2019-04-16T06:40:14.000Z,17.5
2019-04-16T06:45:27.000Z,17.5
2019-04-16T06:50:39.000Z,17.6
2019-04-16T06:55:52.000Z,17.6
2019-04-16T07:01:04.000Z,17.7
2019-04-16T07:06:17.000Z,17.7
2019-04-16T08:48:28.000Z,25.9
2019-04-16T08:53:40.000Z,25.3
2019-04-16T11:02:45.000Z,22
2019-04-16T11:07:58.000Z,22
2019-04-16T11:13:10.000Z,21.9
2019-04-16T11:18:23.000Z,21.9
2019-04-16T11:23:35.000Z,21.9
2019-04-16T11:28:47.000Z,21.9
2019-04-16T11:39:12.000Z,21.9
2019-04-16T11:44:24.000Z,21.9
2019-04-16T11:49:36.000Z,21.9
2019-04-16T11:58:23.000Z,21.9
2019-04-16T12:03:35.000Z,21.9
2019-04-16T12:08:47.000Z,21.9
2019-04-16T12:19:12.000Z,21.9
2019-04-16T12:29:36.000Z,22
2019-04-16T12:34:49.000Z,21.9
2019-04-16T12:40:01.000Z,21.9
2019-04-16T12:50:26.000Z,21.9
2019-04-16T12:55:38.000Z,22
2019-04-16T13:00:50.000Z,22
2019-04-16T13:06:02.000Z,22
2019-04-16T13:11:15.000Z,22
2019-04-16T13:21:39.000Z,22
2019-04-16T13:26:51.000Z,22.1
2019-04-16T13:37:16.000Z,22.1
2019-04-16T13:42:28.000Z,22.1
2019-04-16T13:47:41.000Z,22.1
2019-04-16T13:52:53.000Z,22.2
2019-04-16T13:58:05.000Z,22.2
2019-04-16T14:03:17.000Z,22.2
2019-04-16T14:13:42.000Z,22.3
2019-04-16T14:24:07.000Z,22.3
2019-04-16T14:39:44.000Z,22.5
2019-04-16T14:44:56.000Z,22.5
2019-04-16T14:50:08.000Z,22.5
2019-04-16T14:55:21.000Z,22.6
2019-04-16T15:05:45.000Z,22.7
2019-04-16T15:16:10.000Z,22.7
2019-04-16T15:37:00.000Z,23.7
2019-04-16T15:42:12.000Z,23.4
2019-04-16T15:47:24.000Z,23.3
2019-04-16T15:52:37.000Z,23.1
2019-04-16T15:57:49.000Z,23
2019-04-16T16:18:39.000Z,24.5
2019-04-16T16:23:51.000Z,24.1
2019-04-16T16:29:03.000Z,23.7
2019-04-16T16:34:16.000Z,23.2
2019-04-16T16:39:28.000Z,23
2019-04-16T16:49:53.000Z,22.7
2019-04-16T16:55:05.000Z,22.6
2019-04-16T17:00:17.000Z,22.4
2019-04-16T17:05:29.000Z,22.4
2019-04-16T17:10:42.000Z,22.3
2019-04-16T17:15:54.000Z,22.3
2019-04-16T17:21:06.000Z,22.2
2019-04-16T17:52:20.000Z,22.1
2019-04-16T17:57:32.000Z,22.1
2019-04-16T18:02:44.000Z,22.1
2019-04-16T18:07:57.000Z,22.1
2019-04-16T18:13:09.000Z,22
2019-04-16T18:23:33.000Z,22.1
2019-04-16T18:33:58.000Z,22.1
2019-04-16T18:44:22.000Z,22.2
2019-04-16T18:49:34.000Z,22.1
2019-04-16T18:59:59.000Z,22.1
2019-04-16T19:05:11.000Z,22.1
2019-04-16T19:10:23.000Z,22.1
2019-04-16T19:15:36.000Z,22.1
2019-04-16T19:26:00.000Z,22.1
2019-04-16T19:31:12.000Z,22.1
2019-04-16T19:36:25.000Z,22.1
2019-04-16T19:41:37.000Z,22
2019-04-16T19:46:49.000Z,22.1
2019-04-16T19:52:01.000Z,22
2019-04-16T19:57:14.000Z,22
2019-04-16T20:02:26.000Z,22
2019-04-16T20:07:38.000Z,22
2019-04-16T20:18:03.000Z,22
2019-04-16T20:23:15.000Z,22
2019-04-16T20:28:27.000Z,21.9
2019-04-16T20:33:39.000Z,21.9
2019-04-16T20:38:52.000Z,21.8
2019-04-16T20:44:04.000Z,21.9
2019-04-16T20:49:16.000Z,21.7
2019-04-16T20:54:28.000Z,21.7
2019-04-16T21:10:05.000Z,21.6
2019-04-16T21:15:17.000Z,21.5
2019-04-16T21:20:30.000Z,21.5
2019-04-16T21:25:42.000Z,21.5
2019-04-16T21:30:54.000Z,21.5
2019-04-16T21:36:06.000Z,21.5
2019-04-16T21:41:18.000Z,21.4
2019-04-16T21:46:31.000Z,21.3
2019-04-16T21:51:43.000Z,21.4
2019-04-16T22:02:07.000Z,21.2
2019-04-16T22:07:20.000Z,21.2
2019-04-16T22:17:44.000Z,21.1
2019-04-16T22:22:56.000Z,21.1
2019-04-16T22:28:09.000Z,21.1
2019-04-16T22:33:21.000Z,21.1
2019-04-16T22:38:33.000Z,21.1
2019-04-16T22:54:10.000Z,21
2019-04-16T22:59:22.000Z,21
2019-04-16T23:04:34.000Z,21
2019-04-16T23:09:46.000Z,20.9
2019-04-16T23:14:58.000Z,21
2019-04-16T23:20:11.000Z,21
2019-04-16T23:25:23.000Z,21
2019-04-16T23:30:35.000Z,21
2019-04-16T23:35:47.000Z,20.9
2019-04-16T23:46:12.000Z,20.8
2019-04-16T23:51:24.000Z,20.9
2019-04-16T23:56:36.000Z,20.9
